Ayr, United Kingdom
Current Conditions -  °F | °C
As of 2:20 PM on Saturday 25 Oct 2014 (Local Time) from EGPK Reporting Station
Scattered Clouds Scattered Clouds  
Wind Chill: 57°   Ceiling: Unl
Heat Index: 57°   Visibility: 6mi
Dew Point: 46°   Wind: 22mph
Humidity: 67%   Direction: 210°SSW
Pressure: 29.71"   Gusts: 35mph
Location:  55.46°N, 4.63°W
Report Text: EGPK 251320Z 21019G30KT 9999 FEW022 SCT035 14/08 Q1006
Loading
Personal Weather Stations






























Interactive Weather Map
Tropical Storm Tracking
New forecast layout! Learn more

10-Day Weather Forecast

Advertisements
Track Severe Weather on mobile